createdAt,value
2022-08-01T00:01:30.570Z,99326.94
2022-08-01T00:04:11.558Z,99326.00
2022-08-01T00:06:40.683Z,99319.94
2022-08-01T00:09:07.747Z,99310.44
2022-08-01T00:11:43.586Z,99317.44
2022-08-01T00:14:12.747Z,99306.44
2022-08-01T00:17:07.033Z,99319.13
2022-08-01T00:19:51.535Z,99318.97
2022-08-01T00:22:22.390Z,99317.00
2022-08-01T00:24:57.656Z,99311.91
2022-08-01T00:27:42.180Z,99306.06
2022-08-01T00:30:14.577Z,99314.75
2022-08-01T00:32:44.003Z,99313.06
2022-08-01T00:35:31.057Z,99310.69
2022-08-01T00:38:25.052Z,99321.09
2022-08-01T00:40:55.645Z,99317.81
2022-08-01T00:43:24.766Z,99314.41
2022-08-01T00:46:03.225Z,99319.06
2022-08-01T00:48:39.655Z,99316.47
2022-08-01T00:51:08.932Z,99318.94
2022-08-01T00:53:51.893Z,99323.25
2022-08-01T00:56:29.436Z,99308.53
2022-08-01T00:59:04.792Z,99318.28
2022-08-01T01:01:39.288Z,99310.63
2022-08-01T01:04:16.519Z,99313.31
2022-08-01T01:07:10.367Z,99317.97
2022-08-01T01:10:08.304Z,99319.31
2022-08-01T01:13:06.193Z,99316.91
2022-08-01T01:16:01.160Z,99327.50
2022-08-01T01:18:48.723Z,99332.09
2022-08-01T01:22:13.732Z,99312.91
2022-08-01T01:25:35.198Z,99321.84
2022-08-01T01:28:23.387Z,99306.00
2022-08-01T01:30:55.155Z,99315.41
2022-08-01T01:33:26.776Z,99316.97
2022-08-01T01:35:59.350Z,99315.41
2022-08-01T01:38:44.018Z,99307.56
2022-08-01T01:41:18.324Z,99300.69
2022-08-01T01:43:49.504Z,99308.59
2022-08-01T01:46:23.787Z,99301.56
2022-08-01T01:49:00.469Z,99305.97
2022-08-01T01:51:31.140Z,99300.69
2022-08-01T01:54:18.493Z,99306.81
2022-08-01T01:56:51.349Z,99303.34
2022-08-01T01:59:42.573Z,99298.84
2022-08-01T02:02:18.318Z,99298.84
2022-08-01T02:04:55.769Z,99305.84
2022-08-01T02:07:26.295Z,99288.38
2022-08-01T02:10:03.280Z,99302.53
2022-08-01T02:12:37.921Z,99289.94
2022-08-01T02:15:07.089Z,99298.25
2022-08-01T02:17:38.973Z,99296.28
2022-08-01T02:20:06.640Z,99294.97
2022-08-01T02:22:43.921Z,99300.53
2022-08-01T02:25:19.357Z,99297.63
2022-08-01T02:28:02.567Z,99303.31
2022-08-01T02:30:35.232Z,99296.38
2022-08-01T02:33:24.899Z,99296.69
2022-08-01T02:36:30.305Z,99283.59
2022-08-01T02:39:07.849Z,99293.38
2022-08-01T02:41:43.840Z,99288.97
2022-08-01T02:44:16.453Z,99285.47
2022-08-01T02:47:06.022Z,99286.75
2022-08-01T02:50:11.079Z,99295.56
2022-08-01T02:52:52.464Z,99291.97
2022-08-01T02:55:48.793Z,99296.56
2022-08-01T02:58:29.016Z,99294.88
2022-08-01T03:01:10.041Z,99299.84
2022-08-01T03:03:39.356Z,99298.22
2022-08-01T03:06:14.281Z,99298.91
2022-08-01T03:09:34.111Z,99292.56
2022-08-01T03:12:12.068Z,99296.94
2022-08-01T03:14:45.988Z,99300.78
2022-08-01T03:17:22.930Z,99298.25
2022-08-01T03:19:55.410Z,99297.28
2022-08-01T03:22:27.437Z,99294.22
2022-08-01T03:24:59.617Z,99289.78
2022-08-01T03:27:39.678Z,99297.16
2022-08-01T03:30:09.312Z,99301.06
2022-08-01T03:32:38.542Z,99297.16
2022-08-01T03:35:07.433Z,99300.91
2022-08-01T03:38:00.069Z,99298.00
2022-08-01T03:40:51.110Z,99296.28
2022-08-01T03:43:36.816Z,99295.91
2022-08-01T03:46:12.667Z,99299.19
2022-08-01T03:48:44.214Z,99302.72
2022-08-01T03:51:22.034Z,99296.78
2022-08-01T03:53:52.954Z,99296.28
2022-08-01T03:56:24.314Z,99301.50
2022-08-01T03:58:52.416Z,99298.16
2022-08-01T04:01:20.508Z,99298.69
2022-08-01T04:04:08.169Z,99302.94
2022-08-01T04:06:46.185Z,99299.84
2022-08-01T04:09:36.813Z,99304.84
2022-08-01T04:12:07.283Z,99302.88
2022-08-01T04:14:39.482Z,99301.00
2022-08-01T04:17:44.647Z,99307.50
2022-08-01T04:20:13.904Z,99307.38
2022-08-01T04:22:50.587Z,99303.94
2022-08-01T04:25:29.454Z,99312.28
2022-08-01T04:28:12.503Z,99304.91
2022-08-01T04:30:46.201Z,99301.91
2022-08-01T04:33:23.517Z,99296.19
2022-08-01T04:36:04.759Z,99304.03
2022-08-01T04:38:43.572Z,99302.69
2022-08-01T04:41:13.879Z,99304.41
2022-08-01T04:44:04.085Z,99304.50
2022-08-01T04:46:38.987Z,99305.81
2022-08-01T04:49:08.535Z,99303.97
2022-08-01T04:51:37.679Z,99301.25
2022-08-01T04:54:05.342Z,99299.91
2022-08-01T04:56:35.535Z,99305.00
2022-08-01T04:59:21.169Z,99306.16
2022-08-01T05:01:52.140Z,99312.22
2022-08-01T05:04:21.257Z,99305.19
2022-08-01T05:06:48.255Z,99311.31
2022-08-01T05:09:15.358Z,99314.66
2022-08-01T05:11:49.491Z,99309.25
2022-08-01T05:14:18.848Z,99309.41
2022-08-01T05:17:04.276Z,99301.00
2022-08-01T05:19:54.393Z,99308.78
2022-08-01T05:22:55.258Z,99315.06
2022-08-01T05:25:59.689Z,99311.53
2022-08-01T05:28:40.602Z,99304.72
2022-08-01T05:31:29.265Z,99304.09
2022-08-01T05:34:15.066Z,99306.75
2022-08-01T05:37:04.396Z,99296.50
2022-08-01T05:39:40.383Z,99301.44
2022-08-01T05:42:13.342Z,99291.56
2022-08-01T05:44:41.329Z,99286.44
2022-08-01T05:47:17.842Z,99303.16
2022-08-01T05:49:58.306Z,99298.88
2022-08-01T05:52:40.586Z,99300.38
2022-08-01T05:55:14.603Z,99304.78
2022-08-01T05:57:48.682Z,99301.09
2022-08-01T06:00:22.840Z,99308.25
2022-08-01T06:03:22.897Z,99311.72
2022-08-01T06:05:53.394Z,99296.88
2022-08-01T06:08:21.627Z,99304.41
2022-08-01T06:10:54.947Z,99302.72
2022-08-01T06:13:22.122Z,99303.19
2022-08-01T06:15:51.669Z,99308.28
2022-08-01T06:18:24.830Z,99307.81
2022-08-01T06:21:01.358Z,99313.41
2022-08-01T06:23:32.695Z,99314.88
2022-08-01T06:26:24.284Z,99314.94
2022-08-01T06:28:51.553Z,99318.53
2022-08-01T06:31:19.613Z,99313.66
2022-08-01T06:34:08.426Z,99317.78
2022-08-01T06:36:36.098Z,99316.31
2022-08-01T06:39:04.354Z,99319.69
2022-08-01T06:41:32.345Z,99322.38
2022-08-01T06:44:03.595Z,99324.22
2022-08-01T06:46:36.875Z,99326.53
2022-08-01T06:49:05.306Z,99326.34
2022-08-01T06:51:39.468Z,99326.16
2022-08-01T06:54:07.512Z,99334.09
2022-08-01T06:56:50.929Z,99328.22
2022-08-01T06:59:33.059Z,99329.25
2022-08-01T07:02:12.456Z,99325.56
2022-08-01T07:05:13.050Z,99332.69
2022-08-01T07:07:42.091Z,99332.13
2022-08-01T07:10:09.974Z,99328.22
2022-08-01T07:12:53.356Z,99337.69
2022-08-01T07:15:27.609Z,99328.84
2022-08-01T07:17:55.855Z,99334.47
2022-08-01T07:20:24.521Z,99339.63
2022-08-01T07:22:53.001Z,99335.66
2022-08-01T07:25:20.181Z,99342.69
2022-08-01T07:27:48.307Z,99340.78
2022-08-01T07:30:16.287Z,99340.25
2022-08-01T07:32:45.511Z,99332.94
2022-08-01T07:35:12.673Z,99336.38
2022-08-01T07:37:42.531Z,99338.00
2022-08-01T07:40:22.207Z,99330.50
2022-08-01T07:42:57.501Z,99335.09
2022-08-01T07:45:34.732Z,99325.91
2022-08-01T07:48:08.907Z,99319.75
2022-08-01T07:50:40.330Z,99320.28
2022-08-01T07:53:13.484Z,99312.09
2022-08-01T07:55:47.827Z,99309.28
2022-08-01T07:58:19.369Z,99305.16
2022-08-01T08:00:59.618Z,99314.53
2022-08-01T08:03:43.864Z,99304.38
2022-08-01T08:06:10.947Z,99309.19
2022-08-01T08:08:52.035Z,99302.28
2022-08-01T08:11:39.158Z,99317.53
2022-08-01T08:14:06.160Z,99329.94
2022-08-01T08:16:33.321Z,99343.19
2022-08-01T08:19:00.401Z,99348.44
2022-08-01T08:21:29.879Z,99355.59
2022-08-01T08:24:20.208Z,99351.44
2022-08-01T08:27:02.230Z,99353.41
2022-08-01T08:29:48.527Z,99350.22
2022-08-01T08:32:41.002Z,99360.00
2022-08-01T08:35:12.091Z,99356.84
2022-08-01T08:37:47.899Z,99356.06
2022-08-01T08:40:27.663Z,99358.06
2022-08-01T08:42:55.837Z,99356.06
2022-08-01T08:45:58.187Z,99362.44
2022-08-01T08:48:28.650Z,99362.19
2022-08-01T08:51:04.504Z,99351.78
2022-08-01T08:53:55.630Z,99364.34
2022-08-01T08:56:25.320Z,99360.38
2022-08-01T08:58:57.075Z,99364.19
2022-08-01T09:01:43.519Z,99356.72
2022-08-01T09:04:13.343Z,99355.06
2022-08-01T09:06:49.295Z,99364.66
2022-08-01T09:09:41.610Z,99370.06
2022-08-01T09:12:21.694Z,99369.22
2022-08-01T09:14:56.640Z,99378.59
2022-08-01T09:17:25.760Z,99375.31
2022-08-01T09:20:02.248Z,99368.75
2022-08-01T09:22:36.237Z,99378.25
2022-08-01T09:25:45.973Z,99377.28
2022-08-01T09:28:17.271Z,99379.03
2022-08-01T09:30:45.465Z,99370.75
2022-08-01T09:33:26.963Z,99371.16
2022-08-01T09:35:59.311Z,99373.88
2022-08-01T09:38:38.379Z,99377.06
2022-08-01T09:41:12.686Z,99375.78
2022-08-01T09:43:48.645Z,99376.22
2022-08-01T09:46:17.956Z,99375.16
2022-08-01T09:49:07.498Z,99381.09
2022-08-01T09:51:59.908Z,99381.09
2022-08-01T09:54:34.458Z,99384.16
2022-08-01T09:57:17.381Z,99377.72
2022-08-01T09:59:58.352Z,99377.50
2022-08-01T10:02:36.320Z,99378.88
2022-08-01T10:05:08.852Z,99374.75
2022-08-01T10:08:11.908Z,99375.97
2022-08-01T10:10:41.133Z,99365.59
2022-08-01T10:13:20.337Z,99355.81
2022-08-01T10:15:49.158Z,99360.53
2022-08-01T10:18:26.484Z,99363.59
2022-08-01T10:21:02.885Z,99357.94
2022-08-01T10:23:40.743Z,99357.44
2022-08-01T10:26:11.826Z,99353.69
2022-08-01T10:28:52.098Z,99344.03
2022-08-01T10:31:30.947Z,99352.03
2022-08-01T10:33:59.755Z,99356.44
2022-08-01T10:36:29.949Z,99348.44
2022-08-01T10:38:59.733Z,99344.34
2022-08-01T10:41:35.913Z,99347.94
2022-08-01T10:44:11.562Z,99341.81
2022-08-01T10:46:41.579Z,99348.25
2022-08-01T10:49:20.158Z,99345.34
2022-08-01T10:51:52.448Z,99350.78
2022-08-01T10:54:26.217Z,99349.63
2022-08-01T10:56:54.710Z,99350.25
2022-08-01T10:59:50.499Z,99347.34
2022-08-01T11:02:45.570Z,99341.44
2022-08-01T11:05:23.849Z,99334.34
2022-08-01T11:08:24.936Z,99346.50
2022-08-01T11:11:04.387Z,99342.00
2022-08-01T11:14:16.551Z,99342.53
2022-08-01T11:16:43.673Z,99341.69
2022-08-01T11:19:19.866Z,99344.28
2022-08-01T11:22:09.948Z,99332.59
2022-08-01T11:24:52.617Z,99329.28
2022-08-01T11:27:42.215Z,99335.69
2022-08-01T11:30:13.723Z,99331.72
2022-08-01T11:33:11.167Z,99332.06
2022-08-01T11:36:17.337Z,99330.75
2022-08-01T11:38:49.641Z,99334.00
2022-08-01T11:41:38.154Z,99327.25
2022-08-01T11:44:14.732Z,99332.09
2022-08-01T11:47:09.844Z,99327.69
2022-08-01T11:50:06.301Z,99320.44
2022-08-01T11:52:43.669Z,99319.19
2022-08-01T11:55:11.475Z,99312.69
2022-08-01T11:57:40.147Z,99323.81
2022-08-01T12:00:15.489Z,99316.84
2022-08-01T12:02:47.133Z,99316.97
2022-08-01T12:05:19.412Z,99315.19
2022-08-01T12:08:25.564Z,99319.31
2022-08-01T12:10:52.939Z,99312.53
2022-08-01T12:13:43.160Z,99311.75
2022-08-01T12:16:12.542Z,99310.44
2022-08-01T12:18:44.925Z,99315.69
2022-08-01T12:21:12.048Z,99316.25
2022-08-01T12:23:39.129Z,99306.59
2022-08-01T12:26:06.710Z,99311.59
2022-08-01T12:28:44.679Z,99312.00
2022-08-01T12:31:32.762Z,99308.06
2022-08-01T12:34:31.342Z,99314.31
2022-08-01T12:37:00.410Z,99317.25
2022-08-01T12:39:34.746Z,99305.13
2022-08-01T12:42:08.670Z,99305.94
2022-08-01T12:44:40.410Z,99303.75
2022-08-01T12:47:16.273Z,99300.13
2022-08-01T12:49:54.491Z,99306.03
2022-08-01T12:52:26.762Z,99307.59
2022-08-01T12:55:10.955Z,99311.69
2022-08-01T12:57:42.677Z,99299.53
2022-08-01T13:00:13.193Z,99295.28
2022-08-01T13:03:10.446Z,99290.78
2022-08-01T13:05:46.799Z,99291.91
2022-08-01T13:08:23.519Z,99295.06
2022-08-01T13:11:15.832Z,99297.69
2022-08-01T13:13:49.377Z,99305.84
2022-08-01T13:16:31.162Z,99292.38
2022-08-01T13:19:13.505Z,99303.16
2022-08-01T13:21:56.215Z,99302.19
2022-08-01T13:24:31.496Z,99309.16
2022-08-01T13:27:05.071Z,99305.72
2022-08-01T13:29:47.199Z,99303.53
2022-08-01T13:32:32.608Z,99307.25
2022-08-01T13:35:08.636Z,99303.00
2022-08-01T13:37:39.366Z,99305.53
2022-08-01T13:40:09.531Z,99308.78
2022-08-01T13:42:42.759Z,99298.19
2022-08-01T13:45:14.811Z,99305.97
2022-08-01T13:48:03.627Z,99304.13
2022-08-01T13:50:33.040Z,99314.47
2022-08-01T13:53:05.166Z,99302.78
2022-08-01T13:55:35.504Z,99308.00
2022-08-01T13:58:08.918Z,99306.00
2022-08-01T14:00:39.238Z,99307.38
2022-08-01T14:03:06.954Z,99316.09
2022-08-01T14:05:37.551Z,99311.72
2022-08-01T14:08:07.751Z,99307.28
2022-08-01T14:10:43.362Z,99309.97
2022-08-01T14:13:12.725Z,99329.91
2022-08-01T14:15:41.208Z,99323.69
2022-08-01T14:18:11.059Z,99322.91
2022-08-01T14:20:45.359Z,99324.25
2022-08-01T14:23:17.350Z,99315.41
2022-08-01T14:26:03.206Z,99326.69
2022-08-01T14:28:35.889Z,99328.19
2022-08-01T14:31:16.039Z,99328.09
2022-08-01T14:33:43.131Z,99321.00
2022-08-01T14:36:29.274Z,99331.06
2022-08-01T14:39:01.081Z,99338.03
2022-08-01T14:41:36.320Z,99327.44
2022-08-01T14:44:05.412Z,99334.41
2022-08-01T14:46:35.430Z,99331.34
2022-08-01T14:49:10.521Z,99337.78
2022-08-01T14:51:42.668Z,99346.72
2022-08-01T14:54:09.815Z,99345.03
2022-08-01T14:56:39.145Z,99345.56
2022-08-01T14:59:31.028Z,99355.56
2022-08-01T15:02:00.269Z,99351.47
2022-08-01T15:04:40.558Z,99343.00
2022-08-01T15:07:08.569Z,99344.53
2022-08-01T15:09:48.979Z,99340.63
2022-08-01T15:12:21.250Z,99337.22
2022-08-01T15:14:51.792Z,99344.19
2022-08-01T15:17:30.096Z,99337.06
2022-08-01T15:19:58.580Z,99336.41
2022-08-01T15:22:34.770Z,99337.25
2022-08-01T15:25:02.669Z,99336.19
2022-08-01T15:27:33.681Z,99340.81
2022-08-01T15:30:08.157Z,99347.78
2022-08-01T15:32:36.133Z,99341.78
2022-08-01T15:35:03.611Z,99344.19
2022-08-01T15:37:32.785Z,99344.22
2022-08-01T15:40:00.947Z,99341.78
2022-08-01T15:42:38.561Z,99341.81
2022-08-01T15:45:10.547Z,99344.88
2022-08-01T15:47:55.043Z,99348.22
2022-08-01T15:50:29.723Z,99341.06
2022-08-01T15:52:59.637Z,99336.22
2022-08-01T15:55:38.307Z,99334.28
2022-08-01T15:58:14.729Z,99332.75
2022-08-01T16:00:47.849Z,99339.56
2022-08-01T16:03:22.133Z,99335.41
2022-08-01T16:05:58.447Z,99335.88
2022-08-01T16:08:41.678Z,99335.72
2022-08-01T16:11:12.056Z,99333.66
2022-08-01T16:13:39.256Z,99332.94
2022-08-01T16:16:08.904Z,99330.31
2022-08-01T16:18:40.230Z,99332.63
2022-08-01T16:21:08.158Z,99324.06
2022-08-01T16:23:39.776Z,99333.41
2022-08-01T16:26:15.586Z,99331.09
2022-08-01T16:28:55.619Z,99336.91
2022-08-01T16:31:42.331Z,99334.19
2022-08-01T16:34:31.048Z,99330.38
2022-08-01T16:37:03.357Z,99324.22
2022-08-01T16:39:37.143Z,99329.25
2022-08-01T16:42:04.475Z,99333.47
2022-08-01T16:44:34.282Z,99333.75
2022-08-01T16:47:11.859Z,99333.16
2022-08-01T16:50:01.842Z,99334.53
2022-08-01T16:53:09.353Z,99330.59
2022-08-01T16:55:49.477Z,99326.28
2022-08-01T16:58:27.244Z,99334.28
2022-08-01T17:01:59.080Z,99334.03
2022-08-01T17:03:52.849Z,99332.19
2022-08-01T17:06:23.271Z,99325.59
2022-08-01T17:08:51.243Z,99334.31
2022-08-01T17:11:26.969Z,99336.72
2022-08-01T17:13:59.768Z,99335.94
2022-08-01T17:16:33.982Z,99341.28
2022-08-01T17:19:18.947Z,99341.84
2022-08-01T17:21:54.824Z,99340.66
2022-08-01T17:24:44.720Z,99347.72
2022-08-01T17:27:28.191Z,99356.88
2022-08-01T17:30:14.218Z,99360.97
2022-08-01T17:33:05.714Z,99363.28
2022-08-01T17:35:55.266Z,99374.44
2022-08-01T17:38:24.448Z,99373.16
2022-08-01T17:41:06.778Z,99382.03
2022-08-01T17:43:33.800Z,99385.44
2022-08-01T17:46:02.998Z,99387.50
2022-08-01T17:48:31.059Z,99386.97
2022-08-01T17:51:12.776Z,99393.13
2022-08-01T17:53:57.311Z,99396.25
2022-08-01T17:56:40.020Z,99397.75
2022-08-01T17:59:15.075Z,99404.69
2022-08-01T18:01:49.121Z,99398.59
2022-08-01T18:04:18.265Z,99399.41
2022-08-01T18:07:19.759Z,99412.16
2022-08-01T18:09:53.066Z,99415.53
2022-08-01T18:12:26.805Z,99422.66
2022-08-01T18:14:55.185Z,99428.94
2022-08-01T18:17:24.637Z,99423.47
2022-08-01T18:19:53.697Z,99421.78
2022-08-01T18:22:31.514Z,99427.25
2022-08-01T18:25:08.698Z,99429.13
2022-08-01T18:28:29.461Z,99434.56
2022-08-01T18:30:47.829Z,99445.16
2022-08-01T18:33:24.175Z,99453.09
2022-08-01T18:35:53.518Z,99451.69
2022-08-01T18:38:24.037Z,99456.09
2022-08-01T18:40:52.294Z,99462.19
2022-08-01T18:43:19.793Z,99456.22
2022-08-01T18:46:01.596Z,99456.22
2022-08-01T18:48:29.309Z,99470.81
2022-08-01T18:51:00.964Z,99467.28
2022-08-01T18:53:29.226Z,99467.00
2022-08-01T18:55:59.374Z,99464.75
2022-08-01T18:58:27.457Z,99468.25
2022-08-01T19:00:54.465Z,99466.94
2022-08-01T19:03:24.664Z,99468.97
2022-08-01T19:06:04.053Z,99464.44
2022-08-01T19:08:35.213Z,99474.19
2022-08-01T19:11:03.246Z,99480.84
2022-08-01T19:13:32.113Z,99488.72
2022-08-01T19:15:59.964Z,99488.34
2022-08-01T19:18:28.015Z,99491.47
2022-08-01T19:21:07.256Z,99495.78
2022-08-01T19:23:54.826Z,99503.50
2022-08-01T19:26:26.946Z,99498.66
2022-08-01T19:29:15.578Z,99499.06
2022-08-01T19:31:48.846Z,99489.66
2022-08-01T19:34:26.464Z,99499.72
2022-08-01T19:36:57.355Z,99495.72
2022-08-01T19:39:27.537Z,99494.59
2022-08-01T19:41:59.689Z,99498.47
2022-08-01T19:44:32.955Z,99508.03
2022-08-01T19:47:02.030Z,99520.22
2022-08-01T19:49:29.418Z,99526.56
2022-08-01T19:52:04.757Z,99520.56
2022-08-01T19:54:38.057Z,99523.59
2022-08-01T19:57:08.634Z,99530.41
2022-08-01T19:59:38.699Z,99525.81
2022-08-01T20:02:06.900Z,99535.56
2022-08-01T20:04:43.732Z,99534.59
2022-08-01T20:07:14.421Z,99533.22
2022-08-01T20:10:06.573Z,99541.78
2022-08-01T20:12:34.824Z,99551.69
2022-08-01T20:15:03.334Z,99550.22
2022-08-01T20:17:30.564Z,99550.69
2022-08-01T20:20:11.295Z,99562.41
2022-08-01T20:22:41.447Z,99559.63
2022-08-01T20:25:19.119Z,99566.56
2022-08-01T20:27:48.008Z,99574.84
2022-08-01T20:30:16.305Z,99569.00
2022-08-01T20:32:48.111Z,99573.97
2022-08-01T20:35:16.953Z,99576.91
2022-08-01T20:38:07.310Z,99571.63
2022-08-01T20:40:39.675Z,99570.81
2022-08-01T20:43:21.393Z,99567.69
2022-08-01T20:45:50.745Z,99573.50
2022-08-01T20:48:19.734Z,99568.97
2022-08-01T20:51:07.877Z,99568.81
2022-08-01T20:53:41.132Z,99566.97
2022-08-01T20:56:23.052Z,99561.25
2022-08-01T20:59:09.076Z,99569.38
2022-08-01T21:02:06.373Z,99567.22
2022-08-01T21:04:43.644Z,99573.50
2022-08-01T21:07:33.799Z,99575.19
2022-08-01T21:10:03.461Z,99574.44
2022-08-01T21:12:45.156Z,99574.78
2022-08-01T21:15:27.486Z,99583.03
2022-08-01T21:18:10.440Z,99585.22
2022-08-01T21:20:59.215Z,99587.38
2022-08-01T21:23:48.208Z,99582.38
2022-08-01T21:26:19.492Z,99588.38
2022-08-01T21:28:54.660Z,99586.25
2022-08-01T21:31:25.177Z,99587.53
2022-08-01T21:34:15.700Z,99588.75
2022-08-01T21:36:53.377Z,99590.78
2022-08-01T21:39:29.404Z,99589.78
2022-08-01T21:42:04.890Z,99599.06
2022-08-01T21:44:39.160Z,99593.94
2022-08-01T21:47:11.837Z,99591.13
2022-08-01T21:49:41.064Z,99593.72
2022-08-01T21:52:16.684Z,99600.13
2022-08-01T21:55:10.981Z,99597.69
2022-08-01T21:58:09.826Z,99589.59
2022-08-01T22:00:40.946Z,99601.75
2022-08-01T22:03:29.577Z,99599.72
2022-08-01T22:06:00.873Z,99594.38
2022-08-01T22:08:45.089Z,99599.97
2022-08-01T22:11:14.806Z,99603.88
2022-08-01T22:14:00.432Z,99596.63
2022-08-01T22:16:31.321Z,99603.09
2022-08-01T22:19:04.632Z,99599.66
2022-08-01T22:21:34.995Z,99606.41
2022-08-01T22:24:06.848Z,99592.84
2022-08-01T22:26:41.684Z,99595.72
2022-08-01T22:29:10.054Z,99596.41
2022-08-01T22:31:40.091Z,99592.25
2022-08-01T22:34:18.009Z,99599.38
2022-08-01T22:36:56.324Z,99590.28
2022-08-01T22:39:30.865Z,99593.53
2022-08-01T22:42:03.357Z,99603.66
2022-08-01T22:44:39.840Z,99606.47
2022-08-01T22:47:14.422Z,99617.03
2022-08-01T22:49:54.505Z,99616.31
2022-08-01T22:52:45.721Z,99615.31
2022-08-01T22:55:20.169Z,99609.47
2022-08-01T22:57:58.046Z,99620.25
2022-08-01T23:00:35.961Z,99622.41
2022-08-01T23:03:15.827Z,99615.75
2022-08-01T23:06:02.429Z,99615.44
2022-08-01T23:08:36.555Z,99607.63
2022-08-01T23:11:06.599Z,99621.31
2022-08-01T23:13:34.591Z,99618.53
2022-08-01T23:16:03.033Z,99615.63
2022-08-01T23:18:44.684Z,99617.28
2022-08-01T23:21:18.498Z,99624.09
2022-08-01T23:23:48.762Z,99626.22
2022-08-01T23:26:29.634Z,99625.91
2022-08-01T23:29:00.119Z,99629.31
2022-08-01T23:32:00.216Z,99633.94
2022-08-01T23:34:29.646Z,99631.56
2022-08-01T23:37:21.059Z,99632.50
2022-08-01T23:39:48.364Z,99634.75
2022-08-01T23:42:17.602Z,99639.81
2022-08-01T23:44:44.826Z,99636.91
2022-08-01T23:47:14.653Z,99638.63
2022-08-01T23:49:53.080Z,99638.84
2022-08-01T23:52:32.137Z,99645.28
2022-08-01T23:55:14.837Z,99647.31
2022-08-01T23:57:43.089Z,99643.75
